createdAt,value
2019-03-06T00:01:25.367Z,5.60
2019-03-06T00:03:54.879Z,5.40
2019-03-06T00:06:24.890Z,5.93
2019-03-06T00:08:54.413Z,5.10
2019-03-06T00:11:23.974Z,5.43
2019-03-06T00:13:53.515Z,5.70
2019-03-06T00:16:22.998Z,5.03
2019-03-06T00:18:52.654Z,5.63
2019-03-06T00:21:22.238Z,5.87
2019-03-06T00:23:51.808Z,5.73
2019-03-06T00:26:21.310Z,5.50
2019-03-06T00:28:50.927Z,5.13
2019-03-06T00:31:20.407Z,5.30
2019-03-06T00:33:50.296Z,4.47
2019-03-06T00:36:25.510Z,5.07
2019-03-06T00:38:55.083Z,4.37
2019-03-06T00:41:43.567Z,4.53
2019-03-06T00:44:13.109Z,4.90
2019-03-06T00:46:42.629Z,4.70
2019-03-06T00:49:12.211Z,4.40
2019-03-06T00:51:41.792Z,4.83
2019-03-06T00:54:11.360Z,4.17
2019-03-06T00:56:40.875Z,4.50
2019-03-06T00:59:10.391Z,4.60
2019-03-06T01:01:39.863Z,4.60
2019-03-06T01:04:12.119Z,4.40
2019-03-06T01:06:41.644Z,4.40
2019-03-06T01:09:11.389Z,4.07
2019-03-06T01:11:40.889Z,4.70
2019-03-06T01:14:10.549Z,4.53
2019-03-06T01:16:40.097Z,4.43
2019-03-06T01:19:09.626Z,3.67
2019-03-06T01:21:39.223Z,4.23
2019-03-06T01:24:08.780Z,4.23
2019-03-06T01:26:38.419Z,4.57
2019-03-06T01:29:08.170Z,4.50
2019-03-06T01:31:37.671Z,4.70
2019-03-06T01:34:20.999Z,4.80
2019-03-06T01:37:12.229Z,5.30
2019-03-06T01:39:56.350Z,4.83
2019-03-06T01:42:34.445Z,4.80
2019-03-06T01:45:06.742Z,5.00
2019-03-06T01:47:36.290Z,5.03
2019-03-06T01:50:07.782Z,4.60
2019-03-06T01:52:37.311Z,5.17
2019-03-06T01:55:07.498Z,4.57
2019-03-06T01:57:37.076Z,5.20
2019-03-06T02:00:07.387Z,4.30
2019-03-06T02:02:36.958Z,4.87
2019-03-06T02:05:08.201Z,6.00
2019-03-06T02:07:38.274Z,6.17
2019-03-06T02:10:09.580Z,4.63
2019-03-06T02:12:39.118Z,5.17
2019-03-06T02:15:09.338Z,6.27
2019-03-06T02:17:39.033Z,5.27
2019-03-06T02:20:10.807Z,6.07
2019-03-06T02:22:40.295Z,5.20
2019-03-06T02:25:09.914Z,5.40
2019-03-06T02:27:39.455Z,6.20
2019-03-06T02:30:12.037Z,7.37
2019-03-06T02:32:41.553Z,6.83
2019-03-06T02:35:11.205Z,6.90
2019-03-06T02:37:40.693Z,6.70
2019-03-06T02:40:10.600Z,5.63
2019-03-06T02:42:40.126Z,5.87
2019-03-06T02:45:11.000Z,5.43
2019-03-06T02:47:40.533Z,5.93
2019-03-06T02:50:11.769Z,5.30
2019-03-06T02:52:41.454Z,7.10
2019-03-06T02:55:11.107Z,5.60
2019-03-06T02:57:44.321Z,6.37
2019-03-06T03:00:44.264Z,6.80
2019-03-06T03:03:23.830Z,5.63
2019-03-06T03:05:59.226Z,6.27
2019-03-06T03:08:29.063Z,8.13
2019-03-06T03:10:58.558Z,7.10
2019-03-06T03:13:28.121Z,6.53
2019-03-06T03:15:57.596Z,5.77
2019-03-06T03:18:27.124Z,6.53
2019-03-06T03:20:56.808Z,5.57
2019-03-06T03:23:26.316Z,7.07
2019-03-06T03:25:55.923Z,6.30
2019-03-06T03:28:25.468Z,6.57
2019-03-06T03:30:55.020Z,6.30
2019-03-06T03:33:24.940Z,6.00
2019-03-06T03:35:54.466Z,5.90
2019-03-06T03:38:24.004Z,5.73
2019-03-06T03:40:53.544Z,6.33
2019-03-06T03:43:23.073Z,6.10
2019-03-06T03:45:52.781Z,6.90
2019-03-06T03:48:22.257Z,6.33
2019-03-06T03:50:51.765Z,7.40
2019-03-06T03:53:24.112Z,7.50
2019-03-06T03:55:53.630Z,7.90
2019-03-06T03:58:23.478Z,6.63
2019-03-06T04:00:54.688Z,7.60
2019-03-06T04:03:24.461Z,6.93
2019-03-06T04:05:53.943Z,7.07
2019-03-06T04:08:23.490Z,7.67
2019-03-06T04:10:53.064Z,7.30
2019-03-06T04:13:22.586Z,5.10
2019-03-06T04:15:52.113Z,5.43
2019-03-06T04:18:21.646Z,6.30
2019-03-06T04:20:51.158Z,5.77
2019-03-06T04:23:20.886Z,5.50
2019-03-06T04:25:50.436Z,6.17
2019-03-06T04:28:19.920Z,5.80
2019-03-06T04:30:52.917Z,6.93
2019-03-06T04:33:22.462Z,7.83
2019-03-06T04:35:51.995Z,6.93
2019-03-06T04:38:21.525Z,6.73
2019-03-06T04:40:51.067Z,6.47
2019-03-06T04:43:20.636Z,5.33
2019-03-06T04:45:50.122Z,6.67
2019-03-06T04:48:19.648Z,6.43
2019-03-06T04:50:49.183Z,6.93
2019-03-06T04:53:18.679Z,7.30
2019-03-06T04:55:49.410Z,5.50
2019-03-06T04:58:18.963Z,6.60
2019-03-06T05:00:48.507Z,6.03
2019-03-06T05:03:18.028Z,6.23
2019-03-06T05:05:47.579Z,5.90
2019-03-06T05:08:17.083Z,6.77
2019-03-06T05:10:46.669Z,6.43
2019-03-06T05:13:16.179Z,7.37
2019-03-06T05:15:45.659Z,7.37
2019-03-06T05:18:37.411Z,7.57
2019-03-06T05:21:07.006Z,5.87
2019-03-06T05:23:36.511Z,6.30
2019-03-06T05:26:06.034Z,7.43
2019-03-06T05:28:35.598Z,7.33
2019-03-06T05:31:05.854Z,7.00
2019-03-06T05:33:35.420Z,7.07
2019-03-06T05:36:36.707Z,7.80
2019-03-06T05:39:11.248Z,7.37
2019-03-06T05:41:41.099Z,7.73
2019-03-06T05:44:10.657Z,8.90
2019-03-06T05:46:40.161Z,8.40
2019-03-06T05:49:09.936Z,8.73
2019-03-06T05:51:39.485Z,9.87
2019-03-06T05:54:09.037Z,8.47
2019-03-06T05:56:38.666Z,7.97
2019-03-06T05:59:08.163Z,8.87
2019-03-06T06:01:37.722Z,8.50
2019-03-06T06:04:07.275Z,9.17
2019-03-06T06:06:36.774Z,7.60
2019-03-06T06:09:07.330Z,9.13
2019-03-06T06:11:36.866Z,8.13
2019-03-06T06:14:06.447Z,7.43
2019-03-06T06:16:36.008Z,7.90
2019-03-06T06:19:05.616Z,7.33
2019-03-06T06:21:52.849Z,6.93
2019-03-06T06:24:27.870Z,7.33
2019-03-06T06:26:57.425Z,7.03
2019-03-06T06:29:26.943Z,6.37
2019-03-06T06:31:56.467Z,6.57
2019-03-06T06:34:25.987Z,5.67
2019-03-06T06:36:55.511Z,4.97
2019-03-06T06:39:25.056Z,6.17
2019-03-06T06:41:54.562Z,5.83
2019-03-06T06:44:24.127Z,5.67
2019-03-06T06:46:53.706Z,7.03
2019-03-06T06:49:23.245Z,5.47
2019-03-06T06:52:32.561Z,6.30
2019-03-06T06:55:43.556Z,5.33
2019-03-06T06:58:42.150Z,5.27
2019-03-06T07:01:57.485Z,6.70
2019-03-06T07:05:19.007Z,6.20
2019-03-06T07:08:10.530Z,6.13
2019-03-06T07:10:55.864Z,7.10
2019-03-06T07:13:47.253Z,6.27
2019-03-06T07:16:53.945Z,7.63
2019-03-06T07:19:50.969Z,6.80
2019-03-06T07:22:39.423Z,7.83
2019-03-06T07:25:26.232Z,6.67
2019-03-06T07:28:33.088Z,5.80
2019-03-06T07:31:24.366Z,8.33
2019-03-06T07:34:31.351Z,6.33
2019-03-06T07:37:05.378Z,8.03
2019-03-06T07:40:02.874Z,8.40
2019-03-06T07:42:51.325Z,7.70
2019-03-06T07:45:59.488Z,8.63
2019-03-06T07:48:56.021Z,10.53
2019-03-06T07:51:44.492Z,9.53
2019-03-06T07:54:39.131Z,8.57
2019-03-06T07:57:36.709Z,7.53
2019-03-06T08:00:20.525Z,10.23
2019-03-06T08:03:12.185Z,10.37
2019-03-06T08:05:41.758Z,8.63
2019-03-06T08:08:11.341Z,10.10
2019-03-06T08:10:41.308Z,9.97
2019-03-06T08:13:39.166Z,7.37
2019-03-06T08:16:14.727Z,10.47
2019-03-06T08:18:57.582Z,9.13
2019-03-06T08:21:36.756Z,8.80
2019-03-06T08:24:23.827Z,8.60
2019-03-06T08:26:53.443Z,8.93
2019-03-06T08:29:23.078Z,8.40
2019-03-06T08:31:58.192Z,9.10
2019-03-06T08:34:27.752Z,9.80
2019-03-06T08:36:57.287Z,9.27
2019-03-06T08:39:26.797Z,9.20
2019-03-06T08:41:56.360Z,9.07
2019-03-06T08:44:25.943Z,8.87
2019-03-06T08:47:23.642Z,7.70
2019-03-06T08:50:09.104Z,9.57
2019-03-06T08:53:01.041Z,8.30
2019-03-06T08:55:46.974Z,9.73
2019-03-06T08:58:36.774Z,7.73
2019-03-06T09:01:39.201Z,8.90
2019-03-06T09:04:35.882Z,9.20
2019-03-06T09:07:23.170Z,7.67
2019-03-06T09:10:02.975Z,9.47
2019-03-06T09:12:57.221Z,7.80
2019-03-06T09:15:48.392Z,8.97
2019-03-06T09:18:42.909Z,7.03
2019-03-06T09:21:33.933Z,8.70
2019-03-06T09:24:25.482Z,9.90
2019-03-06T09:27:13.922Z,8.83
2019-03-06T09:30:09.695Z,6.77
2019-03-06T09:32:41.727Z,9.00
2019-03-06T09:35:29.425Z,7.13
2019-03-06T09:38:15.160Z,5.40
2019-03-06T09:40:55.075Z,7.90
2019-03-06T09:43:37.671Z,9.00
2019-03-06T09:46:17.997Z,6.07
2019-03-06T09:48:53.747Z,6.63
2019-03-06T09:51:47.979Z,6.40
2019-03-06T09:54:55.129Z,6.63
2019-03-06T09:57:31.178Z,7.57
2019-03-06T10:00:22.509Z,6.00
2019-03-06T10:03:13.938Z,7.07
2019-03-06T10:05:51.735Z,7.57
2019-03-06T10:08:30.839Z,7.47
2019-03-06T10:11:10.092Z,6.63
2019-03-06T10:13:44.316Z,4.87
2019-03-06T10:16:31.566Z,5.67
2019-03-06T10:19:19.673Z,5.43
2019-03-06T10:21:49.154Z,4.80
2019-03-06T10:24:18.679Z,6.23
2019-03-06T10:26:48.200Z,5.27
2019-03-06T10:29:17.722Z,3.93
2019-03-06T10:31:47.273Z,5.90
2019-03-06T10:34:16.773Z,5.40
2019-03-06T10:36:46.397Z,6.63
2019-03-06T10:39:16.686Z,5.13
2019-03-06T10:41:46.222Z,5.62
2019-03-06T10:44:15.919Z,6.17
2019-03-06T10:46:45.492Z,5.30
2019-03-06T10:49:15.021Z,5.50
2019-03-06T10:51:44.567Z,4.37
2019-03-06T10:54:14.422Z,4.42
2019-03-06T10:56:43.906Z,4.70
2019-03-06T10:59:13.474Z,5.53
2019-03-06T11:01:42.966Z,5.87
2019-03-06T11:04:31.399Z,5.23
2019-03-06T11:07:01.007Z,4.35
2019-03-06T11:09:30.706Z,6.10
2019-03-06T11:12:00.214Z,5.58
2019-03-06T11:14:30.026Z,3.98
2019-03-06T11:16:59.466Z,4.22
2019-03-06T11:19:29.191Z,4.87
2019-03-06T11:21:58.719Z,4.83
2019-03-06T11:24:28.294Z,4.60
2019-03-06T11:26:57.770Z,3.25
2019-03-06T11:29:27.407Z,4.17
2019-03-06T11:31:57.108Z,4.20
2019-03-06T11:34:26.584Z,3.77
2019-03-06T11:36:56.745Z,4.33
2019-03-06T11:39:26.365Z,3.77
2019-03-06T11:41:55.898Z,4.83
2019-03-06T11:44:25.417Z,4.42
2019-03-06T11:46:54.957Z,3.47
2019-03-06T11:49:24.454Z,3.40
2019-03-06T11:51:54.283Z,4.20
2019-03-06T11:54:23.815Z,3.95
2019-03-06T11:56:53.370Z,4.47
2019-03-06T11:59:22.866Z,3.20
2019-03-06T12:01:52.404Z,2.70
2019-03-06T12:04:21.910Z,3.50
2019-03-06T12:06:51.541Z,3.75
2019-03-06T12:09:32.630Z,2.67
2019-03-06T12:12:03.656Z,2.72
2019-03-06T12:14:33.211Z,3.30
2019-03-06T12:17:02.703Z,2.95
2019-03-06T12:19:32.431Z,3.67
2019-03-06T12:22:02.024Z,3.55
2019-03-06T12:24:31.577Z,3.47
2019-03-06T12:27:01.122Z,3.53
2019-03-06T12:29:30.614Z,3.27
2019-03-06T12:32:00.658Z,3.62
2019-03-06T12:34:30.358Z,3.75
2019-03-06T12:37:00.005Z,2.90
2019-03-06T12:39:29.553Z,3.85
2019-03-06T12:41:59.074Z,2.50
2019-03-06T12:44:28.599Z,3.35
2019-03-06T12:46:59.459Z,4.00
2019-03-06T12:49:29.871Z,3.75
2019-03-06T12:51:59.414Z,4.20
2019-03-06T12:54:28.942Z,3.40
2019-03-06T12:56:58.451Z,4.08
2019-03-06T12:59:28.194Z,3.10
2019-03-06T13:01:57.667Z,3.02
2019-03-06T13:04:27.225Z,3.92
2019-03-06T13:06:56.723Z,4.72
2019-03-06T13:09:26.244Z,3.80
2019-03-06T13:11:55.734Z,7.28
2019-03-06T13:14:25.531Z,6.20
2019-03-06T13:16:55.119Z,7.47
2019-03-06T13:19:24.663Z,3.43
2019-03-06T13:21:54.140Z,3.83
2019-03-06T13:24:23.664Z,4.10
2019-03-06T13:26:53.161Z,4.22
2019-03-06T13:29:22.879Z,3.77
2019-03-06T13:31:52.418Z,3.52
2019-03-06T13:34:52.737Z,3.72
2019-03-06T13:37:22.375Z,4.07
2019-03-06T13:39:51.903Z,3.90
2019-03-06T13:42:21.425Z,4.47
2019-03-06T13:44:50.935Z,3.20
2019-03-06T13:47:20.527Z,3.70
2019-03-06T13:49:50.063Z,3.95
2019-03-06T13:52:19.553Z,4.22
2019-03-06T13:54:49.430Z,4.40
2019-03-06T13:57:19.062Z,3.77
2019-03-06T13:59:48.581Z,5.55
2019-03-06T14:02:18.240Z,4.08
2019-03-06T14:04:47.711Z,5.10
2019-03-06T14:07:17.270Z,26.12
2019-03-06T14:09:46.778Z,5.00
2019-03-06T14:12:16.267Z,4.10
2019-03-06T14:14:45.789Z,3.77
2019-03-06T14:17:15.272Z,4.47
2019-03-06T14:19:45.128Z,4.08
2019-03-06T14:22:14.623Z,4.05
2019-03-06T14:24:44.158Z,3.62
2019-03-06T14:27:13.858Z,3.10
2019-03-06T14:29:43.371Z,3.58
2019-03-06T14:32:14.943Z,3.40
2019-03-06T14:34:44.657Z,3.58
2019-03-06T14:37:14.124Z,3.20
2019-03-06T14:39:43.593Z,3.62
2019-03-06T14:42:13.125Z,3.00
2019-03-06T14:44:42.678Z,3.90
2019-03-06T14:47:13.099Z,2.95
2019-03-06T14:49:42.648Z,2.80
2019-03-06T14:52:12.146Z,3.30
2019-03-06T14:54:41.777Z,4.10
2019-03-06T14:57:11.323Z,3.45
2019-03-06T14:59:40.886Z,5.53
2019-03-06T15:02:10.766Z,2.80
2019-03-06T15:04:40.301Z,3.40
2019-03-06T15:07:09.882Z,2.90
2019-03-06T15:09:39.391Z,3.37
2019-03-06T15:12:08.892Z,3.33
2019-03-06T15:14:38.441Z,2.40
2019-03-06T15:17:08.064Z,2.20
2019-03-06T15:19:39.188Z,2.85
2019-03-06T15:22:08.866Z,2.47
2019-03-06T15:24:41.703Z,3.17
2019-03-06T15:27:09.598Z,2.67
2019-03-06T15:29:39.363Z,2.60
2019-03-06T15:32:08.982Z,2.30
2019-03-06T15:34:38.479Z,2.42
2019-03-06T15:37:08.152Z,1.90
2019-03-06T15:39:43.576Z,2.00
2019-03-06T15:42:13.768Z,2.12
2019-03-06T15:44:43.257Z,2.25
2019-03-06T15:47:12.853Z,2.17
2019-03-06T15:49:42.375Z,2.52
2019-03-06T15:52:12.544Z,1.87
2019-03-06T15:54:42.083Z,2.30
2019-03-06T15:57:11.583Z,2.17
2019-03-06T15:59:41.145Z,2.25
2019-03-06T16:02:10.844Z,2.85
2019-03-06T16:04:40.435Z,2.00
2019-03-06T16:07:09.923Z,2.55
2019-03-06T16:09:39.742Z,2.75
2019-03-06T16:12:09.434Z,2.00
2019-03-06T16:14:38.949Z,2.52
2019-03-06T16:17:08.462Z,2.98
2019-03-06T16:19:38.017Z,2.90
2019-03-06T16:22:07.832Z,2.62
2019-03-06T16:24:37.716Z,2.50
2019-03-06T16:27:07.459Z,2.60
2019-03-06T16:29:36.947Z,2.30
2019-03-06T16:32:06.523Z,2.70
2019-03-06T16:34:36.072Z,2.60
2019-03-06T16:37:06.057Z,2.72
2019-03-06T16:39:35.590Z,2.58
2019-03-06T16:42:05.326Z,2.52
2019-03-06T16:44:34.855Z,2.60
2019-03-06T16:47:06.873Z,3.33
2019-03-06T16:49:35.889Z,2.98
2019-03-06T16:52:05.409Z,2.52
2019-03-06T16:54:34.925Z,2.85
2019-03-06T16:57:04.429Z,2.65
2019-03-06T16:59:33.959Z,3.10
2019-03-06T17:02:03.777Z,3.00
2019-03-06T17:04:33.787Z,3.25
2019-03-06T17:07:03.289Z,3.20
2019-03-06T17:09:32.895Z,3.15
2019-03-06T17:12:02.466Z,2.72
2019-03-06T17:14:32.053Z,3.75
2019-03-06T17:17:01.578Z,3.70
2019-03-06T17:19:31.086Z,3.22
2019-03-06T17:22:00.622Z,3.58
2019-03-06T17:24:30.155Z,3.77
2019-03-06T17:26:59.692Z,3.62
2019-03-06T17:29:29.183Z,4.33
2019-03-06T17:31:58.868Z,6.20
2019-03-06T17:34:28.374Z,17.80
2019-03-06T17:36:57.923Z,36.98
2019-03-06T17:39:27.438Z,47.83
2019-03-06T17:41:56.954Z,5.42
2019-03-06T17:44:26.435Z,5.22
2019-03-06T17:46:56.180Z,5.78
2019-03-06T17:49:25.785Z,5.22
2019-03-06T17:51:55.308Z,3.72
2019-03-06T17:54:24.860Z,4.35
2019-03-06T17:56:54.343Z,5.00
2019-03-06T17:59:23.860Z,4.33
2019-03-06T18:01:53.321Z,4.60
2019-03-06T18:04:24.305Z,4.50
2019-03-06T18:06:53.827Z,4.28
2019-03-06T18:09:23.492Z,21.83
2019-03-06T18:11:53.012Z,11.70
2019-03-06T18:14:22.811Z,24.23
2019-03-06T18:16:52.342Z,14.37
2019-03-06T18:19:21.850Z,7.70
2019-03-06T18:21:51.379Z,5.67
2019-03-06T18:24:20.867Z,4.10
2019-03-06T18:26:50.416Z,7.73
2019-03-06T18:29:20.059Z,7.17
2019-03-06T18:31:49.590Z,12.43
2019-03-06T18:34:19.127Z,8.13
2019-03-06T18:36:48.690Z,22.13
2019-03-06T18:39:19.081Z,15.05
2019-03-06T18:41:49.046Z,8.00
2019-03-06T18:44:18.587Z,22.62
2019-03-06T18:46:48.109Z,7.27
2019-03-06T18:49:17.614Z,11.13
2019-03-06T18:51:47.109Z,4.40
2019-03-06T18:54:16.723Z,4.73
2019-03-06T18:56:46.237Z,4.53
2019-03-06T18:59:15.760Z,4.90
2019-03-06T19:01:45.259Z,4.10
2019-03-06T19:04:14.767Z,6.10
2019-03-06T19:06:44.291Z,4.00
2019-03-06T19:09:13.788Z,4.93
2019-03-06T19:11:43.710Z,6.03
2019-03-06T19:14:13.196Z,4.70
2019-03-06T19:16:42.717Z,5.50
2019-03-06T19:19:12.225Z,4.87
2019-03-06T19:21:41.802Z,5.10
2019-03-06T19:24:11.334Z,5.07
2019-03-06T19:26:41.143Z,5.47
2019-03-06T19:29:10.690Z,5.87
2019-03-06T19:31:40.128Z,5.00
2019-03-06T19:34:09.624Z,4.70
2019-03-06T19:36:39.147Z,4.60
2019-03-06T19:39:08.750Z,4.53
2019-03-06T19:41:38.337Z,4.77
2019-03-06T19:44:07.849Z,3.93
2019-03-06T19:46:37.366Z,4.40
2019-03-06T19:49:06.909Z,4.57
2019-03-06T19:51:36.442Z,4.30
2019-03-06T19:54:05.924Z,4.70
2019-03-06T19:56:35.602Z,4.30
2019-03-06T19:59:05.179Z,5.00
2019-03-06T20:01:34.705Z,3.50
2019-03-06T20:04:04.228Z,4.70
2019-03-06T20:06:33.753Z,4.80
2019-03-06T20:09:04.720Z,5.07
2019-03-06T20:11:34.257Z,4.00
2019-03-06T20:14:03.724Z,4.73
2019-03-06T20:16:33.226Z,4.30
2019-03-06T20:19:02.739Z,4.13
2019-03-06T20:21:32.229Z,4.27
2019-03-06T20:24:01.765Z,4.10
2019-03-06T20:26:31.372Z,4.57
2019-03-06T20:29:01.234Z,3.93
2019-03-06T20:31:31.066Z,4.10
2019-03-06T20:34:00.596Z,4.53
2019-03-06T20:36:30.117Z,4.60
2019-03-06T20:38:59.612Z,4.30
2019-03-06T20:41:29.135Z,3.80
2019-03-06T20:43:58.701Z,3.50
2019-03-06T20:46:28.200Z,4.23
2019-03-06T20:48:58.139Z,3.73
2019-03-06T20:51:27.637Z,4.30
2019-03-06T20:53:57.155Z,3.80
2019-03-06T20:56:26.745Z,3.83
2019-03-06T20:58:57.779Z,3.43
2019-03-06T21:01:27.629Z,4.67
2019-03-06T21:03:57.121Z,3.90
2019-03-06T21:06:33.244Z,3.60
2019-03-06T21:08:57.845Z,4.47
2019-03-06T21:11:27.378Z,4.10
2019-03-06T21:13:57.284Z,3.63
2019-03-06T21:16:26.894Z,3.43
2019-03-06T21:18:56.453Z,4.13
2019-03-06T21:21:26.003Z,3.83
2019-03-06T21:23:55.494Z,3.33
2019-03-06T21:26:25.013Z,3.40
2019-03-06T21:28:54.492Z,4.03
2019-03-06T21:31:24.029Z,3.40
2019-03-06T21:33:53.814Z,3.10
2019-03-06T21:36:23.533Z,3.30
2019-03-06T21:38:53.032Z,3.10
2019-03-06T21:41:22.514Z,3.63
2019-03-06T21:43:52.042Z,3.13
2019-03-06T21:46:21.538Z,4.23
2019-03-06T21:48:51.056Z,2.90
2019-03-06T21:51:20.618Z,3.37
2019-03-06T21:53:50.163Z,3.20
2019-03-06T21:56:19.655Z,3.27
2019-03-06T21:58:49.224Z,3.20
2019-03-06T22:01:18.726Z,2.87
2019-03-06T22:03:48.239Z,3.13
2019-03-06T22:06:17.909Z,2.77
2019-03-06T22:08:47.411Z,2.93
2019-03-06T22:11:16.904Z,3.13
2019-03-06T22:13:46.426Z,2.80
2019-03-06T22:16:15.910Z,3.17
2019-03-06T22:18:45.432Z,3.37
2019-03-06T22:21:14.986Z,2.73
2019-03-06T22:23:44.507Z,3.10
2019-03-06T22:26:13.981Z,3.00
2019-03-06T22:28:43.819Z,3.13
2019-03-06T22:31:13.351Z,2.50
2019-03-06T22:33:42.843Z,3.10
2019-03-06T22:36:12.322Z,2.87
2019-03-06T22:38:41.819Z,2.80
2019-03-06T22:41:11.335Z,2.87
2019-03-06T22:43:40.949Z,2.57
2019-03-06T22:46:10.422Z,2.40
2019-03-06T22:48:39.937Z,2.70
2019-03-06T22:51:09.464Z,3.00
2019-03-06T22:53:38.974Z,2.50
2019-03-06T22:56:08.497Z,3.00
2019-03-06T22:58:37.989Z,2.70
2019-03-06T23:01:26.076Z,2.53
2019-03-06T23:03:56.374Z,2.77
2019-03-06T23:06:26.111Z,2.70
2019-03-06T23:08:55.627Z,2.93
2019-03-06T23:11:25.114Z,3.33
2019-03-06T23:13:54.635Z,2.77
2019-03-06T23:16:24.484Z,2.53
2019-03-06T23:18:54.019Z,2.57
2019-03-06T23:21:23.850Z,2.60
2019-03-06T23:23:53.347Z,2.30
2019-03-06T23:26:22.856Z,2.37
2019-03-06T23:28:52.386Z,2.30
2019-03-06T23:31:21.899Z,2.47
2019-03-06T23:33:51.434Z,2.10
2019-03-06T23:36:20.914Z,2.40
2019-03-06T23:38:50.411Z,2.20
2019-03-06T23:41:19.936Z,2.37
2019-03-06T23:43:49.410Z,1.83
2019-03-06T23:46:18.914Z,2.17
2019-03-06T23:48:48.711Z,2.33
2019-03-06T23:51:23.482Z,2.30
2019-03-06T23:53:56.174Z,1.90
2019-03-06T23:56:25.689Z,2.43
2019-03-06T23:58:55.180Z,2.13
